createdAt,value
2022-08-30T00:01:03.020Z,78.87
2022-08-30T00:03:30.487Z,79.20
2022-08-30T00:05:56.934Z,78.51
2022-08-30T00:08:23.255Z,78.55
2022-08-30T00:10:51.180Z,78.25
2022-08-30T00:13:17.642Z,77.98
2022-08-30T00:15:44.077Z,79.92
2022-08-30T00:18:10.453Z,80.43
2022-08-30T00:20:36.743Z,81.07
2022-08-30T00:23:03.036Z,80.23
2022-08-30T00:25:29.344Z,79.72
2022-08-30T00:27:55.652Z,79.20
2022-08-30T00:30:21.963Z,79.01
2022-08-30T00:32:48.255Z,78.91
2022-08-30T00:35:14.563Z,78.87
2022-08-30T00:37:40.861Z,78.69
2022-08-30T00:40:07.222Z,79.55
2022-08-30T00:42:33.755Z,79.32
2022-08-30T00:45:00.121Z,79.21
2022-08-30T00:47:26.431Z,79.08
2022-08-30T00:49:54.164Z,79.51
2022-08-30T00:52:20.455Z,79.48
2022-08-30T00:54:46.819Z,79.50
2022-08-30T00:57:13.106Z,79.57
2022-08-30T00:59:39.437Z,80.04
2022-08-30T01:02:05.757Z,79.66
2022-08-30T01:04:32.314Z,79.23
2022-08-30T01:06:59.091Z,79.14
2022-08-30T01:09:25.440Z,79.03
2022-08-30T01:11:51.903Z,79.00
2022-08-30T01:14:18.203Z,79.24
2022-08-30T01:16:44.510Z,79.13
2022-08-30T01:19:10.803Z,79.39
2022-08-30T01:21:39.076Z,78.97
2022-08-30T01:24:05.376Z,79.01
2022-08-30T01:26:31.668Z,79.74
2022-08-30T01:28:57.985Z,80.40
2022-08-30T01:31:24.361Z,80.67
2022-08-30T01:33:51.057Z,80.89
2022-08-30T01:36:17.436Z,81.71
2022-08-30T01:38:43.755Z,81.53
2022-08-30T01:41:10.104Z,81.13
2022-08-30T01:43:36.750Z,81.07
2022-08-30T01:46:04.073Z,81.06
2022-08-30T01:48:31.143Z,81.05
2022-08-30T01:50:57.680Z,80.72
2022-08-30T01:53:23.981Z,81.22
2022-08-30T01:55:50.292Z,81.52
2022-08-30T01:58:16.590Z,82.61
2022-08-30T02:00:42.887Z,83.35
2022-08-30T02:03:09.184Z,82.15
2022-08-30T02:05:35.503Z,81.69
2022-08-30T02:08:01.811Z,82.28
2022-08-30T02:10:28.604Z,81.45
2022-08-30T02:12:54.917Z,81.53
2022-08-30T02:15:21.211Z,81.44
2022-08-30T02:17:47.567Z,82.17
2022-08-30T02:20:13.859Z,81.79
2022-08-30T02:22:40.225Z,82.30
2022-08-30T02:25:20.891Z,81.73
2022-08-30T02:27:47.680Z,82.55
2022-08-30T02:30:13.968Z,81.86
2022-08-30T02:32:41.428Z,82.75
2022-08-30T02:35:07.736Z,82.31
2022-08-30T02:37:34.032Z,81.68
2022-08-30T02:40:00.410Z,81.16
2022-08-30T02:42:26.750Z,81.63
2022-08-30T02:44:53.068Z,81.80
2022-08-30T02:47:19.386Z,82.23
2022-08-30T02:49:45.675Z,82.58
2022-08-30T02:52:11.968Z,83.01
2022-08-30T02:54:38.269Z,82.63
2022-08-30T02:57:06.275Z,82.21
2022-08-30T02:59:32.529Z,82.24
2022-08-30T03:01:58.851Z,83.35
2022-08-30T03:04:26.870Z,82.70
2022-08-30T03:06:53.407Z,83.18
2022-08-30T03:09:19.725Z,82.91
2022-08-30T03:11:46.031Z,82.76
2022-08-30T03:14:12.361Z,83.05
2022-08-30T03:16:39.536Z,82.64
2022-08-30T03:19:05.974Z,82.32
2022-08-30T03:21:32.282Z,82.62
2022-08-30T03:23:58.585Z,82.56
2022-08-30T03:26:24.887Z,82.54
2022-08-30T03:28:51.186Z,82.59
2022-08-30T03:31:17.523Z,82.42
2022-08-30T03:33:43.878Z,82.35
2022-08-30T03:36:10.192Z,82.30
2022-08-30T03:38:36.476Z,82.02
2022-08-30T03:41:02.776Z,81.82
2022-08-30T03:43:30.278Z,81.73
2022-08-30T03:45:56.999Z,81.87
2022-08-30T03:48:23.351Z,82.35
2022-08-30T03:50:49.695Z,82.12
2022-08-30T03:53:16.116Z,82.65
2022-08-30T03:55:42.567Z,82.67
2022-08-30T03:58:08.887Z,82.62
2022-08-30T04:00:35.262Z,82.68
2022-08-30T04:03:01.666Z,83.35
2022-08-30T04:05:27.961Z,82.67
2022-08-30T04:07:54.260Z,82.83
2022-08-30T04:10:23.383Z,82.70
2022-08-30T04:12:49.970Z,82.59
2022-08-30T04:15:16.364Z,82.76
2022-08-30T04:17:42.651Z,83.00
2022-08-30T04:20:08.975Z,82.81
2022-08-30T04:22:36.798Z,82.96
2022-08-30T04:25:03.141Z,82.80
2022-08-30T04:27:29.445Z,84.48
2022-08-30T04:29:56.264Z,83.82
2022-08-30T04:32:22.712Z,83.61
2022-08-30T04:34:52.238Z,83.28
2022-08-30T04:37:18.548Z,83.43
2022-08-30T04:39:46.805Z,83.26
2022-08-30T04:42:13.146Z,82.87
2022-08-30T04:44:39.455Z,83.25
2022-08-30T04:47:05.768Z,83.07
2022-08-30T04:49:35.069Z,82.68
2022-08-30T04:52:01.376Z,82.44
2022-08-30T04:54:27.679Z,82.21
2022-08-30T04:56:53.969Z,82.47
2022-08-30T04:59:20.295Z,82.64
2022-08-30T05:01:46.723Z,83.75
2022-08-30T05:04:13.155Z,83.88
2022-08-30T05:06:39.460Z,83.86
2022-08-30T05:09:05.789Z,84.00
2022-08-30T05:11:32.178Z,83.61
2022-08-30T05:13:58.475Z,83.97
2022-08-30T05:16:24.807Z,83.56
2022-08-30T05:18:51.729Z,83.75
2022-08-30T05:21:18.034Z,84.13
2022-08-30T05:23:44.338Z,83.56
2022-08-30T05:26:10.672Z,83.17
2022-08-30T05:28:36.964Z,82.62
2022-08-30T05:31:03.417Z,82.99
2022-08-30T05:33:29.933Z,83.41
2022-08-30T05:35:56.230Z,82.80
2022-08-30T05:38:22.528Z,82.62
2022-08-30T05:40:50.082Z,83.21
2022-08-30T05:43:16.381Z,83.23
2022-08-30T05:45:42.686Z,82.90
2022-08-30T05:48:09.002Z,83.13
2022-08-30T05:50:40.107Z,82.58
2022-08-30T05:53:06.473Z,83.63
2022-08-30T05:55:32.933Z,81.74
2022-08-30T05:58:00.785Z,82.25
2022-08-30T06:00:27.117Z,81.74
2022-08-30T06:02:53.922Z,81.26
2022-08-30T06:05:20.628Z,81.61
2022-08-30T06:07:47.151Z,80.76
2022-08-30T06:10:13.922Z,80.05
2022-08-30T06:12:43.130Z,80.14
2022-08-30T06:15:09.444Z,79.57
2022-08-30T06:17:35.748Z,79.26
2022-08-30T06:20:02.041Z,79.13
2022-08-30T06:22:28.352Z,78.92
2022-08-30T06:24:57.445Z,78.12
2022-08-30T06:27:24.230Z,78.73
2022-08-30T06:29:50.524Z,78.28
2022-08-30T06:32:16.914Z,77.78
2022-08-30T06:34:43.209Z,76.61
2022-08-30T06:37:09.499Z,76.77
2022-08-30T06:39:35.798Z,75.55
2022-08-30T06:42:02.093Z,75.51
2022-08-30T06:44:28.415Z,75.28
2022-08-30T06:46:56.457Z,75.17
2022-08-30T06:49:22.861Z,75.31
2022-08-30T06:51:49.152Z,75.10
2022-08-30T06:54:15.440Z,74.55
2022-08-30T06:56:48.741Z,74.17
2022-08-30T06:59:24.283Z,74.65
2022-08-30T07:01:50.646Z,75.21
2022-08-30T07:04:17.016Z,74.46
2022-08-30T07:06:43.325Z,74.63
2022-08-30T07:09:09.643Z,74.99
2022-08-30T07:11:36.284Z,73.64
2022-08-30T07:14:02.608Z,72.96
2022-08-30T07:16:28.920Z,71.73
2022-08-30T07:18:55.338Z,72.48
2022-08-30T07:21:21.729Z,71.71
2022-08-30T07:23:53.422Z,71.70
2022-08-30T07:26:20.243Z,71.35
2022-08-30T07:28:46.600Z,70.41
2022-08-30T07:31:13.418Z,69.20
2022-08-30T07:33:40.500Z,68.94
2022-08-30T07:36:07.139Z,68.32
2022-08-30T07:38:33.447Z,68.34
2022-08-30T07:41:01.144Z,68.26
2022-08-30T07:43:27.585Z,68.40
2022-08-30T07:45:53.909Z,68.23
2022-08-30T07:48:20.219Z,68.30
2022-08-30T07:50:46.509Z,67.60
2022-08-30T07:53:12.963Z,67.28
2022-08-30T07:55:39.376Z,66.69
2022-08-30T07:58:05.678Z,66.03
2022-08-30T08:00:31.979Z,65.82
2022-08-30T08:02:58.336Z,65.49
2022-08-30T08:05:25.027Z,64.89
2022-08-30T08:07:51.390Z,65.19
2022-08-30T08:10:18.789Z,64.64
2022-08-30T08:12:45.103Z,65.30
2022-08-30T08:15:11.644Z,64.75
2022-08-30T08:17:37.939Z,64.19
2022-08-30T08:20:04.227Z,64.26
2022-08-30T08:22:30.662Z,63.49
2022-08-30T08:24:57.216Z,63.45
2022-08-30T08:27:24.732Z,63.11
2022-08-30T08:29:51.045Z,63.69
2022-08-30T08:32:17.345Z,63.48
2022-08-30T08:34:43.643Z,63.16
2022-08-30T08:37:09.942Z,62.64
2022-08-30T08:39:37.001Z,61.61
2022-08-30T08:42:04.016Z,61.00
2022-08-30T08:44:34.316Z,61.78
2022-08-30T08:47:01.005Z,62.66
2022-08-30T08:49:29.485Z,62.93
2022-08-30T08:52:14.506Z,62.34
2022-08-30T08:54:40.809Z,61.03
2022-08-30T08:57:07.109Z,60.19
2022-08-30T08:59:33.399Z,60.60
2022-08-30T09:02:00.802Z,60.59
2022-08-30T09:04:27.467Z,61.13
2022-08-30T09:06:53.810Z,60.16
2022-08-30T09:09:20.156Z,59.71
2022-08-30T09:11:46.984Z,59.16
2022-08-30T09:17:02.944Z,59.05
2022-08-30T09:19:30.627Z,58.40
2022-08-30T09:22:00.779Z,59.52
2022-08-30T09:24:27.063Z,59.11
2022-08-30T09:26:53.348Z,59.01
2022-08-30T09:29:19.635Z,57.12
2022-08-30T09:31:46.451Z,56.99
2022-08-30T09:34:12.765Z,56.35
2022-08-30T09:36:39.073Z,56.47
2022-08-30T09:39:05.373Z,57.27
2022-08-30T09:41:31.930Z,57.00
2022-08-30T09:43:58.239Z,54.75
2022-08-30T09:46:24.622Z,53.98
2022-08-30T09:48:50.957Z,54.05
2022-08-30T09:51:17.252Z,54.60
2022-08-30T09:53:55.707Z,54.49
2022-08-30T09:56:29.857Z,55.76
2022-08-30T09:58:56.356Z,54.98
2022-08-30T10:01:22.911Z,54.83
2022-08-30T10:03:49.394Z,56.57
2022-08-30T10:06:16.423Z,55.54
2022-08-30T10:08:42.756Z,55.88
2022-08-30T10:11:10.682Z,55.26
2022-08-30T10:13:36.933Z,53.92
2022-08-30T10:16:03.267Z,53.11
2022-08-30T10:18:29.594Z,51.56
2022-08-30T10:20:55.898Z,50.85
2022-08-30T10:23:22.211Z,51.94
2022-08-30T10:25:49.952Z,49.96
2022-08-30T10:28:16.172Z,51.25
2022-08-30T10:30:42.523Z,50.50
2022-08-30T10:33:09.076Z,51.40
2022-08-30T10:35:39.179Z,50.14
2022-08-30T10:38:05.520Z,50.61
2022-08-30T10:40:50.627Z,50.93
2022-08-30T10:43:17.577Z,49.73
2022-08-30T10:45:44.477Z,49.54
2022-08-30T10:48:10.785Z,50.51
2022-08-30T10:53:24.743Z,49.77
2022-08-30T10:55:51.089Z,50.80
2022-08-30T10:58:18.192Z,49.86
2022-08-30T11:00:44.649Z,50.23
2022-08-30T11:03:10.975Z,48.18
2022-08-30T11:05:37.356Z,48.65
2022-08-30T11:08:08.256Z,48.47
2022-08-30T11:10:47.767Z,49.59
2022-08-30T11:13:16.477Z,48.93
2022-08-30T11:15:42.895Z,46.78
2022-08-30T11:18:09.188Z,46.18
2022-08-30T11:20:36.021Z,45.96
2022-08-30T11:23:02.379Z,47.57
2022-08-30T11:25:28.867Z,46.58
2022-08-30T11:27:58.733Z,45.16
2022-08-30T11:30:26.595Z,46.65
2022-08-30T11:32:53.541Z,45.71
2022-08-30T11:35:20.580Z,45.67
2022-08-30T11:37:48.824Z,44.07
2022-08-30T11:40:17.486Z,44.93
2022-08-30T11:42:48.288Z,45.07
2022-08-30T11:45:15.807Z,45.36
2022-08-30T11:47:43.329Z,45.61
2022-08-30T11:50:12.374Z,45.77
2022-08-30T11:52:39.209Z,46.63
2022-08-30T11:55:06.065Z,47.27
2022-08-30T11:57:33.238Z,45.86
2022-08-30T11:59:59.609Z,46.88
2022-08-30T12:02:25.953Z,46.26
2022-08-30T12:04:56.168Z,46.80
2022-08-30T12:07:22.905Z,45.90
2022-08-30T12:09:49.453Z,45.90
2022-08-30T12:12:15.788Z,46.37
2022-08-30T12:14:42.138Z,48.16
2022-08-30T12:17:27.196Z,48.21
2022-08-30T12:19:53.498Z,47.79
2022-08-30T12:22:19.977Z,44.09
2022-08-30T12:24:46.336Z,44.94
2022-08-30T12:27:12.690Z,45.47
2022-08-30T12:29:41.785Z,45.55
2022-08-30T12:32:08.622Z,46.83
2022-08-30T12:34:34.951Z,48.33
2022-08-30T12:37:02.915Z,50.25
2022-08-30T12:39:30.883Z,48.51
2022-08-30T12:41:57.229Z,49.57
2022-08-30T12:44:23.577Z,49.70
2022-08-30T12:46:49.903Z,49.87
2022-08-30T12:49:16.205Z,51.26
2022-08-30T12:51:42.495Z,50.48
2022-08-30T12:54:08.817Z,51.39
2022-08-30T12:56:50.097Z,52.55
2022-08-30T12:59:16.705Z,51.62
2022-08-30T13:01:44.811Z,51.49
2022-08-30T13:04:14.296Z,51.66
2022-08-30T13:06:42.215Z,52.41
2022-08-30T13:09:08.571Z,52.15
2022-08-30T13:11:34.948Z,51.92
2022-08-30T13:14:01.250Z,51.96
2022-08-30T13:16:29.390Z,51.09
2022-08-30T13:18:56.124Z,51.42
2022-08-30T13:21:22.461Z,51.06
2022-08-30T13:23:48.759Z,51.51
2022-08-30T13:26:15.252Z,50.13
2022-08-30T13:28:49.611Z,49.98
2022-08-30T13:31:16.080Z,50.42
2022-08-30T13:33:45.504Z,49.74
2022-08-30T13:36:11.858Z,49.71
2022-08-30T13:38:38.327Z,49.61
2022-08-30T13:41:04.631Z,49.74
2022-08-30T13:43:31.261Z,49.62
2022-08-30T13:46:17.515Z,49.77
2022-08-30T13:48:43.856Z,49.28
2022-08-30T13:51:10.335Z,49.30
2022-08-30T13:53:53.128Z,48.50
2022-08-30T13:56:19.921Z,48.32
2022-08-30T13:58:47.633Z,48.93
2022-08-30T14:01:14.007Z,48.86
2022-08-30T14:04:13.188Z,48.75
2022-08-30T14:06:33.096Z,47.96
2022-08-30T14:09:03.743Z,47.51
2022-08-30T14:11:30.582Z,48.53
2022-08-30T14:16:43.262Z,47.25
2022-08-30T14:19:09.619Z,46.94
2022-08-30T14:21:35.927Z,47.68
2022-08-30T14:24:04.683Z,47.08
2022-08-30T14:26:32.740Z,46.10
2022-08-30T14:29:02.835Z,45.80
2022-08-30T14:31:30.092Z,46.32
2022-08-30T14:33:59.267Z,46.15
2022-08-30T14:36:25.590Z,46.23
2022-08-30T14:38:51.958Z,44.90
2022-08-30T14:41:18.279Z,44.93
2022-08-30T14:43:44.604Z,44.07
2022-08-30T14:46:11.024Z,45.80
2022-08-30T14:48:37.397Z,44.85
2022-08-30T14:51:04.468Z,45.03
2022-08-30T14:53:30.775Z,44.56
2022-08-30T14:55:57.063Z,45.28
2022-08-30T14:58:23.433Z,44.40
2022-08-30T15:00:49.744Z,43.48
2022-08-30T15:03:16.100Z,43.61
2022-08-30T15:05:42.668Z,44.13
2022-08-30T15:08:10.016Z,45.42
2022-08-30T15:10:36.993Z,43.77
2022-08-30T15:13:04.772Z,44.47
2022-08-30T15:15:31.236Z,44.25
2022-08-30T15:17:57.539Z,44.59
2022-08-30T15:20:23.849Z,44.68
2022-08-30T15:22:50.186Z,44.95
2022-08-30T15:25:18.669Z,44.51
2022-08-30T15:27:49.284Z,44.79
2022-08-30T15:30:15.604Z,44.76
2022-08-30T15:32:45.995Z,45.81
2022-08-30T15:35:12.302Z,45.13
2022-08-30T15:37:38.606Z,45.03
2022-08-30T15:40:04.985Z,44.82
2022-08-30T15:42:31.939Z,45.12
2022-08-30T15:44:59.324Z,46.92
2022-08-30T15:47:26.157Z,46.60
2022-08-30T15:49:52.475Z,48.08
2022-08-30T15:52:18.832Z,49.26
2022-08-30T15:54:49.419Z,49.36
2022-08-30T15:57:16.207Z,50.60
2022-08-30T15:59:43.514Z,50.60
2022-08-30T16:02:09.866Z,49.05
2022-08-30T16:04:37.125Z,49.47
2022-08-30T16:07:03.424Z,50.13
2022-08-30T16:09:32.433Z,49.00
2022-08-30T16:11:59.089Z,49.18
2022-08-30T16:14:25.804Z,49.44
2022-08-30T16:16:52.116Z,48.87
2022-08-30T16:19:18.432Z,49.27
2022-08-30T16:21:44.882Z,49.86
2022-08-30T16:24:13.856Z,48.37
2022-08-30T16:26:40.481Z,48.54
2022-08-30T16:29:07.598Z,48.99
2022-08-30T16:31:35.260Z,49.14
2022-08-30T16:34:02.347Z,49.41
2022-08-30T16:36:30.133Z,49.95
2022-08-30T16:38:58.403Z,49.52
2022-08-30T16:41:24.894Z,49.98
2022-08-30T16:43:53.598Z,49.95
2022-08-30T16:46:22.940Z,50.85
2022-08-30T16:48:53.408Z,50.45
2022-08-30T16:51:19.769Z,50.43
2022-08-30T16:53:46.390Z,50.86
2022-08-30T16:56:12.705Z,51.09
2022-08-30T16:58:39.081Z,51.20
2022-08-30T17:01:05.582Z,51.31
2022-08-30T17:03:31.933Z,51.51
2022-08-30T17:05:58.237Z,50.14
2022-08-30T17:08:24.823Z,51.34
2022-08-30T17:10:51.119Z,51.07
2022-08-30T17:13:17.904Z,50.43
2022-08-30T17:15:45.819Z,51.06
2022-08-30T17:18:12.308Z,51.17
2022-08-30T17:20:40.494Z,51.28
2022-08-30T17:23:10.785Z,51.17
2022-08-30T17:25:37.111Z,51.58
2022-08-30T17:28:03.674Z,52.07
2022-08-30T17:30:31.339Z,53.20
2022-08-30T17:32:57.644Z,53.43
2022-08-30T17:35:24.306Z,53.61
2022-08-30T17:37:51.393Z,54.01
2022-08-30T17:40:17.734Z,54.56
2022-08-30T17:42:45.039Z,53.86
2022-08-30T17:45:11.334Z,53.54
2022-08-30T17:47:37.654Z,53.58
2022-08-30T17:50:05.103Z,54.29
2022-08-30T17:52:32.044Z,53.41
2022-08-30T17:54:59.703Z,54.23
2022-08-30T17:57:26.070Z,54.87
2022-08-30T17:59:52.381Z,54.82
2022-08-30T18:02:21.475Z,55.54
2022-08-30T18:04:57.775Z,55.86
2022-08-30T18:07:25.567Z,56.33
2022-08-30T18:09:53.269Z,56.70
2022-08-30T18:12:20.176Z,57.02
2022-08-30T18:14:47.114Z,56.69
2022-08-30T18:17:19.354Z,57.15
2022-08-30T18:19:46.851Z,57.39
2022-08-30T18:22:13.157Z,57.54
2022-08-30T18:24:39.471Z,57.78
2022-08-30T18:27:05.936Z,58.34
2022-08-30T18:29:32.321Z,58.16
2022-08-30T18:31:58.629Z,58.08
2022-08-30T18:34:24.947Z,56.89
2022-08-30T18:36:51.320Z,57.78
2022-08-30T18:39:18.892Z,56.57
2022-08-30T18:41:46.902Z,57.09
2022-08-30T18:44:27.268Z,58.08
2022-08-30T18:46:56.056Z,59.13
2022-08-30T18:49:23.213Z,59.39
2022-08-30T18:51:49.960Z,60.18
2022-08-30T18:54:16.453Z,59.25
2022-08-30T18:56:42.765Z,60.33
2022-08-30T18:59:12.084Z,59.23
2022-08-30T19:01:38.781Z,59.20
2022-08-30T19:04:06.891Z,59.35
2022-08-30T19:06:34.233Z,59.61
2022-08-30T19:09:00.555Z,61.52
2022-08-30T19:11:26.948Z,62.60
2022-08-30T19:13:53.770Z,61.98
2022-08-30T19:16:20.072Z,61.29
2022-08-30T19:18:46.735Z,60.76
2022-08-30T19:21:13.527Z,61.01
2022-08-30T19:23:40.085Z,61.10
2022-08-30T19:26:06.429Z,61.38
2022-08-30T19:28:34.602Z,61.83
2022-08-30T19:31:01.001Z,61.36
2022-08-30T19:33:27.328Z,62.08
2022-08-30T19:35:54.022Z,62.55
2022-08-30T19:38:20.328Z,62.66
2022-08-30T19:40:49.095Z,63.90
2022-08-30T19:43:18.981Z,64.23
2022-08-30T19:45:45.465Z,64.00
2022-08-30T19:48:12.233Z,63.96
2022-08-30T19:50:39.659Z,64.45
2022-08-30T19:53:08.958Z,63.79
2022-08-30T19:55:37.200Z,63.39
2022-08-30T19:58:04.387Z,63.41
2022-08-30T20:00:31.322Z,63.38
2022-08-30T20:02:57.963Z,65.01
2022-08-30T20:05:24.299Z,64.70
2022-08-30T20:07:51.126Z,63.92
2022-08-30T20:10:19.752Z,64.63
2022-08-30T20:12:48.323Z,65.71
2022-08-30T20:15:16.151Z,66.07
2022-08-30T20:18:02.603Z,65.90
2022-08-30T20:20:28.781Z,66.90
2022-08-30T20:22:55.110Z,67.54
2022-08-30T20:25:25.181Z,68.17
2022-08-30T20:27:51.480Z,67.94
2022-08-30T20:30:17.784Z,67.60
2022-08-30T20:32:46.548Z,68.26
2022-08-30T20:35:12.963Z,69.12
2022-08-30T20:37:40.305Z,69.74
2022-08-30T20:40:06.920Z,69.91
2022-08-30T20:42:33.274Z,69.10
2022-08-30T20:45:00.172Z,69.73
2022-08-30T20:47:26.478Z,69.70
2022-08-30T20:49:52.949Z,71.45
2022-08-30T20:52:19.250Z,70.51
2022-08-30T20:54:45.577Z,70.42
2022-08-30T20:57:11.907Z,70.29
2022-08-30T20:59:38.735Z,69.96
2022-08-30T21:02:05.962Z,69.48
2022-08-30T21:04:32.715Z,69.95
2022-08-30T21:06:59.045Z,69.69
2022-08-30T21:09:25.451Z,69.41
2022-08-30T21:11:51.798Z,71.51
2022-08-30T21:14:18.407Z,70.44
2022-08-30T21:16:45.013Z,68.83
2022-08-30T21:19:11.362Z,68.71
2022-08-30T21:21:37.683Z,69.25
2022-08-30T21:24:06.639Z,69.00
2022-08-30T21:26:33.250Z,68.36
2022-08-30T21:28:59.543Z,69.04
2022-08-30T21:31:25.890Z,68.19
2022-08-30T21:33:52.277Z,68.75
2022-08-30T21:36:37.502Z,68.43
2022-08-30T21:39:03.799Z,67.42
2022-08-30T21:41:31.427Z,67.06
2022-08-30T21:43:57.973Z,68.78
2022-08-30T21:46:24.903Z,67.97
2022-08-30T21:48:51.176Z,68.12
2022-08-30T21:51:17.477Z,68.90
2022-08-30T21:53:43.777Z,68.66
2022-08-30T21:56:12.983Z,69.28
2022-08-30T21:58:40.051Z,69.18
2022-08-30T22:01:07.537Z,68.91
2022-08-30T22:03:34.219Z,69.34
2022-08-30T22:06:00.529Z,69.33
2022-08-30T22:08:26.834Z,69.19
2022-08-30T22:10:53.324Z,69.90
2022-08-30T22:13:19.773Z,70.09
2022-08-30T22:15:46.131Z,69.68
2022-08-30T22:18:12.483Z,70.87
2022-08-30T22:20:41.151Z,71.18
2022-08-30T22:23:07.791Z,71.35
2022-08-30T22:25:34.099Z,71.30
2022-08-30T22:28:00.406Z,70.29
2022-08-30T22:30:27.791Z,71.56
2022-08-30T22:32:54.086Z,71.51
2022-08-30T22:35:20.856Z,71.28
2022-08-30T22:37:53.132Z,71.35
2022-08-30T22:40:20.032Z,71.11
2022-08-30T22:42:48.495Z,71.45
2022-08-30T22:45:14.904Z,70.88
2022-08-30T22:47:41.198Z,70.49
2022-08-30T22:50:07.500Z,70.82
2022-08-30T22:52:33.881Z,71.25
2022-08-30T22:55:00.189Z,71.59
2022-08-30T22:57:26.799Z,71.70
2022-08-30T22:59:53.160Z,71.61
2022-08-30T23:02:19.513Z,71.58
2022-08-30T23:04:45.885Z,71.94
2022-08-30T23:07:12.189Z,73.92
2022-08-30T23:09:38.486Z,73.15
2022-08-30T23:12:06.250Z,74.39
2022-08-30T23:14:32.557Z,74.99
2022-08-30T23:16:58.901Z,74.67
2022-08-30T23:19:26.630Z,74.51
2022-08-30T23:21:52.927Z,74.88
2022-08-30T23:24:37.668Z,74.32
2022-08-30T23:27:25.969Z,74.12
2022-08-30T23:30:10.835Z,74.28
2022-08-30T23:32:55.693Z,73.97
2022-08-30T23:35:40.981Z,76.37
2022-08-30T23:38:25.821Z,77.00
2022-08-30T23:41:10.617Z,76.27
2022-08-30T23:43:55.679Z,76.70
2022-08-30T23:46:40.545Z,76.25
2022-08-30T23:49:25.516Z,76.81
2022-08-30T23:52:10.351Z,79.45
2022-08-30T23:54:57.314Z,79.02
2022-08-30T23:57:42.303Z,78.70
